sensor_id;sensor_type;location;lat;lon;timestamp;pressure;altitude;pressure_sealevel;temperature;humidity
43436;BME280;36399;51.444;-2.018;2023-03-23T00:01:20;98753.72;;;7.37;100.00
43436;BME280;36399;51.444;-2.018;2023-03-23T00:03:49;98756.34;;;7.38;100.00
43436;BME280;36399;51.444;-2.018;2023-03-23T00:06:16;98746.78;;;7.33;100.00
43436;BME280;36399;51.444;-2.018;2023-03-23T00:08:45;98745.91;;;7.29;100.00
43436;BME280;36399;51.444;-2.018;2023-03-23T00:11:20;98745.06;;;7.28;100.00
43436;BME280;36399;51.444;-2.018;2023-03-23T00:13:49;98738.06;;;7.38;100.00
43436;BME280;36399;51.444;-2.018;2023-03-23T00:16:23;98735.47;;;7.31;100.00
43436;BME280;36399;51.444;-2.018;2023-03-23T00:18:56;98731.09;;;7.42;100.00
43436;BME280;36399;51.444;-2.018;2023-03-23T00:21:23;98734.59;;;7.32;100.00
43436;BME280;36399;51.444;-2.018;2023-03-23T00:24:04;98744.16;;;7.26;100.00
43436;BME280;36399;51.444;-2.018;2023-03-23T00:26:32;98759.81;;;7.16;100.00
43436;BME280;36399;51.444;-2.018;2023-03-23T00:29:01;98769.41;;;7.09;100.00
43436;BME280;36399;51.444;-2.018;2023-03-23T00:31:27;98770.28;;;7.01;100.00
43436;BME280;36399;51.444;-2.018;2023-03-23T00:33:59;98770.28;;;6.91;100.00
43436;BME280;36399;51.444;-2.018;2023-03-23T00:36:27;98770.28;;;6.79;100.00
43436;BME280;36399;51.444;-2.018;2023-03-23T00:38:54;98782.41;;;6.71;100.00
43436;BME280;36399;51.444;-2.018;2023-03-23T00:41:24;98777.19;;;6.65;100.00
43436;BME280;36399;51.444;-2.018;2023-03-23T00:43:54;98785.88;;;6.58;100.00
43436;BME280;36399;51.444;-2.018;2023-03-23T00:46:20;98797.16;;;6.57;100.00
43436;BME280;36399;51.444;-2.018;2023-03-23T00:48:46;98802.38;;;6.49;100.00
43436;BME280;36399;51.444;-2.018;2023-03-23T00:51:12;98820.63;;;6.48;100.00
43436;BME280;36399;51.444;-2.018;2023-03-23T00:53:39;98818.88;;;6.50;100.00
43436;BME280;36399;51.444;-2.018;2023-03-23T00:56:07;98821.50;;;6.53;100.00
43436;BME280;36399;51.444;-2.018;2023-03-23T00:58:33;98819.78;;;6.59;100.00
43436;BME280;36399;51.444;-2.018;2023-03-23T01:00:59;98831.06;;;6.57;100.00
43436;BME280;36399;51.444;-2.018;2023-03-23T01:03:26;98826.75;;;6.76;100.00
43436;BME280;36399;51.444;-2.018;2023-03-23T01:05:54;98825.00;;;6.73;100.00
43436;BME280;36399;51.444;-2.018;2023-03-23T01:08:21;98819.78;;;6.72;100.00
43436;BME280;36399;51.444;-2.018;2023-03-23T01:10:47;98831.09;;;6.66;100.00
43436;BME280;36399;51.444;-2.018;2023-03-23T01:13:14;98836.28;;;6.60;100.00
43436;BME280;36399;51.444;-2.018;2023-03-23T01:15:41;98827.59;;;6.61;100.00
43436;BME280;36399;51.444;-2.018;2023-03-23T01:18:09;98840.63;;;6.59;100.00
43436;BME280;36399;51.444;-2.018;2023-03-23T01:20:36;98825.00;;;6.65;100.00
43436;BME280;36399;51.444;-2.018;2023-03-23T01:23:03;98826.72;;;6.63;100.00
43436;BME280;36399;51.444;-2.018;2023-03-23T01:25:31;98834.56;;;6.65;100.00
43436;BME280;36399;51.444;-2.018;2023-03-23T01:27:58;98822.38;;;6.64;100.00
43436;BME280;36399;51.444;-2.018;2023-03-23T01:30:24;98822.41;;;6.70;100.00
43436;BME280;36399;51.444;-2.018;2023-03-23T01:32:51;98820.63;;;6.60;100.00
43436;BME280;36399;51.444;-2.018;2023-03-23T01:35:17;98829.34;;;6.60;100.00
43436;BME280;36399;51.444;-2.018;2023-03-23T01:37:43;98824.09;;;6.53;100.00
43436;BME280;36399;51.444;-2.018;2023-03-23T01:40:10;98826.69;;;6.39;100.00
43436;BME280;36399;51.444;-2.018;2023-03-23T01:42:37;98836.22;;;6.31;100.00
43436;BME280;36399;51.444;-2.018;2023-03-23T01:45:20;98829.28;;;6.36;100.00
43436;BME280;36399;51.444;-2.018;2023-03-23T01:48:07;98832.75;;;6.37;100.00
43436;BME280;36399;51.444;-2.018;2023-03-23T01:50:39;98836.25;;;6.42;100.00
43436;BME280;36399;51.444;-2.018;2023-03-23T01:53:08;98841.41;;;6.29;100.00
43436;BME280;36399;51.444;-2.018;2023-03-23T01:55:37;98839.63;;;6.21;100.00
43436;BME280;36399;51.444;-2.018;2023-03-23T01:58:06;98840.47;;;6.15;100.00
43436;BME280;36399;51.444;-2.018;2023-03-23T02:00:34;98836.19;;;6.29;100.00
43436;BME280;36399;51.444;-2.018;2023-03-23T02:03:00;98837.06;;;6.28;100.00
43436;BME280;36399;51.444;-2.018;2023-03-23T02:05:33;98841.41;;;6.26;100.00
43436;BME280;36399;51.444;-2.018;2023-03-23T02:08:00;98838.72;;;6.19;100.00
43436;BME280;36399;51.444;-2.018;2023-03-23T02:10:32;98839.59;;;6.16;100.00
43436;BME280;36399;51.444;-2.018;2023-03-23T02:12:59;98837.00;;;6.24;100.00
43436;BME280;36399;51.444;-2.018;2023-03-23T02:15:32;98834.44;;;6.25;100.00
43436;BME280;36399;51.444;-2.018;2023-03-23T02:18:19;98837.06;;;6.31;100.00
43436;BME280;36399;51.444;-2.018;2023-03-23T02:21:13;98833.63;;;6.37;100.00
43436;BME280;36399;51.444;-2.018;2023-03-23T02:23:51;98843.16;;;6.27;100.00
43436;BME280;36399;51.444;-2.018;2023-03-23T02:29:24;98837.84;;;6.12;100.00
43436;BME280;36399;51.444;-2.018;2023-03-23T02:32:12;98837.81;;;6.06;100.00
43436;BME280;36399;51.444;-2.018;2023-03-23T02:34:45;98847.38;;;6.07;100.00
43436;BME280;36399;51.444;-2.018;2023-03-23T02:37:22;98853.50;;;6.18;100.00
43436;BME280;36399;51.444;-2.018;2023-03-23T02:39:53;98856.06;;;6.09;100.00
43436;BME280;36399;51.444;-2.018;2023-03-23T02:42:32;98851.69;;;6.04;100.00
43436;BME280;36399;51.444;-2.018;2023-03-23T02:45:02;98858.66;;;6.06;100.00
43436;BME280;36399;51.444;-2.018;2023-03-23T02:47:29;98862.13;;;6.07;100.00
43436;BME280;36399;51.444;-2.018;2023-03-23T02:49:57;98859.50;;;6.02;100.00
43436;BME280;36399;51.444;-2.018;2023-03-23T02:52:27;98849.91;;;5.95;100.00
43436;BME280;36399;51.444;-2.018;2023-03-23T02:54:55;98852.53;;;5.96;100.00
43436;BME280;36399;51.444;-2.018;2023-03-23T02:57:23;98850.81;;;5.98;100.00
43436;BME280;36399;51.444;-2.018;2023-03-23T02:59:50;98857.72;;;5.93;100.00
43436;BME280;36399;51.444;-2.018;2023-03-23T03:02:36;98856.72;;;5.75;100.00
43436;BME280;36399;51.444;-2.018;2023-03-23T03:08:40;98855.69;;;5.56;100.00
43436;BME280;36399;51.444;-2.018;2023-03-23T03:11:12;98852.94;;;5.33;100.00
43436;BME280;36399;51.444;-2.018;2023-03-23T03:16:43;98855.63;;;5.44;100.00
43436;BME280;36399;51.444;-2.018;2023-03-23T03:19:24;98858.22;;;5.45;100.00
43436;BME280;36399;51.444;-2.018;2023-03-23T03:21:53;98856.59;;;5.59;100.00
43436;BME280;36399;51.444;-2.018;2023-03-23T03:24:21;98854.03;;;5.67;100.00
43436;BME280;36399;51.444;-2.018;2023-03-23T03:26:50;98866.22;;;5.71;100.00
43436;BME280;36399;51.444;-2.018;2023-03-23T03:29:20;98868.00;;;5.74;100.00
43436;BME280;36399;51.444;-2.018;2023-03-23T03:31:48;98867.31;;;5.99;100.00
43436;BME280;36399;51.444;-2.018;2023-03-23T03:34:15;98856.03;;;6.05;100.00
43436;BME280;36399;51.444;-2.018;2023-03-23T03:36:44;98862.94;;;5.93;100.00
43436;BME280;36399;51.444;-2.018;2023-03-23T03:39:13;98868.19;;;5.99;100.00
43436;BME280;36399;51.444;-2.018;2023-03-23T03:41:41;98859.50;;;6.04;100.00
43436;BME280;36399;51.444;-2.018;2023-03-23T03:44:08;98852.53;;;5.99;100.00
43436;BME280;36399;51.444;-2.018;2023-03-23T03:46:35;98858.63;;;5.97;100.00
43436;BME280;36399;51.444;-2.018;2023-03-23T03:49:06;98863.81;;;5.97;100.00
43436;BME280;36399;51.444;-2.018;2023-03-23T03:51:34;98865.53;;;5.95;100.00
43436;BME280;36399;51.444;-2.018;2023-03-23T03:54:01;98859.44;;;5.91;100.00
43436;BME280;36399;51.444;-2.018;2023-03-23T03:56:27;98857.72;;;5.90;100.00
43436;BME280;36399;51.444;-2.018;2023-03-23T03:58:53;98850.72;;;5.86;100.00
43436;BME280;36399;51.444;-2.018;2023-03-23T04:01:21;98856.88;;;5.96;100.00
43436;BME280;36399;51.444;-2.018;2023-03-23T04:03:49;98861.22;;;5.98;100.00
43436;BME280;36399;51.444;-2.018;2023-03-23T04:06:15;98861.19;;;5.92;100.00
43436;BME280;36399;51.444;-2.018;2023-03-23T04:08:41;98855.91;;;5.85;100.00
43436;BME280;36399;51.444;-2.018;2023-03-23T04:11:09;98855.00;;;5.75;100.00
43436;BME280;36399;51.444;-2.018;2023-03-23T04:13:36;98857.59;;;5.74;100.00
43436;BME280;36399;51.444;-2.018;2023-03-23T04:16:02;98857.59;;;5.75;100.00
43436;BME280;36399;51.444;-2.018;2023-03-23T04:18:29;98858.47;;;5.79;100.00
43436;BME280;36399;51.444;-2.018;2023-03-23T04:20:58;98860.28;;;5.89;100.00
43436;BME280;36399;51.444;-2.018;2023-03-23T04:23:27;98862.91;;;5.90;100.00
43436;BME280;36399;51.444;-2.018;2023-03-23T04:25:56;98864.66;;;5.91;100.00
43436;BME280;36399;51.444;-2.018;2023-03-23T04:28:24;98879.31;;;5.80;100.00
43436;BME280;36399;51.444;-2.018;2023-03-23T04:30:51;98881.94;;;5.80;100.00
43436;BME280;36399;51.444;-2.018;2023-03-23T04:33:25;98877.59;;;5.84;100.00
43436;BME280;36399;51.444;-2.018;2023-03-23T04:35:54;98876.72;;;5.83;100.00
43436;BME280;36399;51.444;-2.018;2023-03-23T04:38:21;98873.28;;;5.84;100.00
43436;BME280;36399;51.444;-2.018;2023-03-23T04:40:50;98882.81;;;5.84;100.00
43436;BME280;36399;51.444;-2.018;2023-03-23T04:43:22;98884.50;;;5.77;100.00
43436;BME280;36399;51.444;-2.018;2023-03-23T04:45:58;98881.00;;;5.74;100.00
43436;BME280;36399;51.444;-2.018;2023-03-23T04:48:28;98889.63;;;5.69;100.00
43436;BME280;36399;51.444;-2.018;2023-03-23T04:50:55;98884.50;;;5.77;100.00
43436;BME280;36399;51.444;-2.018;2023-03-23T04:53:22;98875.75;;;5.70;100.00
43436;BME280;36399;51.444;-2.018;2023-03-23T04:55:48;98888.75;;;5.69;100.00
43436;BME280;36399;51.444;-2.018;2023-03-23T04:58:15;98879.22;;;5.69;100.00
43436;BME280;36399;51.444;-2.018;2023-03-23T05:00:43;98887.88;;;5.65;100.00
43436;BME280;36399;51.444;-2.018;2023-03-23T05:03:10;98881.78;;;5.62;100.00
43436;BME280;36399;51.444;-2.018;2023-03-23T05:05:36;98887.88;;;5.65;100.00
43436;BME280;36399;51.444;-2.018;2023-03-23T05:08:03;98889.56;;;5.60;100.00
43436;BME280;36399;51.444;-2.018;2023-03-23T05:10:29;98891.28;;;5.58;100.00
43436;BME280;36399;51.444;-2.018;2023-03-23T05:12:55;98896.50;;;5.58;100.00
43436;BME280;36399;51.444;-2.018;2023-03-23T05:15:21;98892.16;;;5.56;100.00
43436;BME280;36399;51.444;-2.018;2023-03-23T05:17:47;98889.53;;;5.54;100.00
43436;BME280;36399;51.444;-2.018;2023-03-23T05:20:16;98882.66;;;5.62;100.00
43436;BME280;36399;51.444;-2.018;2023-03-23T05:22:46;98887.84;;;5.62;100.00
43436;BME280;36399;51.444;-2.018;2023-03-23T05:25:16;98893.06;;;5.65;100.00
43436;BME280;36399;51.444;-2.018;2023-03-23T05:27:46;98886.13;;;5.64;100.00
43436;BME280;36399;51.444;-2.018;2023-03-23T05:30:14;98893.97;;;5.69;100.00
43436;BME280;36399;51.444;-2.018;2023-03-23T05:32:44;98893.13;;;5.71;100.00
43436;BME280;36399;51.444;-2.018;2023-03-23T05:35:12;98887.88;;;5.65;100.00
43436;BME280;36399;51.444;-2.018;2023-03-23T05:37:38;98900.94;;;5.71;100.00
43436;BME280;36399;51.444;-2.018;2023-03-23T05:40:05;98897.41;;;5.65;100.00
43436;BME280;36399;51.444;-2.018;2023-03-23T05:42:33;98891.38;;;5.70;100.00
43436;BME280;36399;51.444;-2.018;2023-03-23T05:45:01;98896.53;;;5.61;100.00
43436;BME280;36399;51.444;-2.018;2023-03-23T05:47:27;98891.34;;;5.64;100.00
43436;BME280;36399;51.444;-2.018;2023-03-23T05:49:53;98894.03;;;5.74;100.00
43436;BME280;36399;51.444;-2.018;2023-03-23T05:52:20;98892.28;;;5.73;100.00
43436;BME280;36399;51.444;-2.018;2023-03-23T05:54:46;98894.84;;;5.71;100.00
43436;BME280;36399;51.444;-2.018;2023-03-23T05:57:12;98901.88;;;5.80;100.00
43436;BME280;36399;51.444;-2.018;2023-03-23T05:59:38;98905.38;;;5.85;100.00
43436;BME280;36399;51.444;-2.018;2023-03-23T06:02:04;98891.53;;;5.89;100.00
43436;BME280;36399;51.444;-2.018;2023-03-23T06:04:31;98902.88;;;5.92;100.00
43436;BME280;36399;51.444;-2.018;2023-03-23T06:07:01;98902.03;;;5.98;100.00
43436;BME280;36399;51.444;-2.018;2023-03-23T06:09:28;98902.03;;;5.98;100.00
43436;BME280;36399;51.444;-2.018;2023-03-23T06:11:54;98914.19;;;5.97;100.00
43436;BME280;36399;51.444;-2.018;2023-03-23T06:14:20;98911.59;;;5.99;100.00
43436;BME280;36399;51.444;-2.018;2023-03-23T06:16:46;98910.72;;;5.97;100.00
43436;BME280;36399;51.444;-2.018;2023-03-23T06:19:13;98897.81;;;6.20;100.00
43436;BME280;36399;51.444;-2.018;2023-03-23T06:21:41;98905.75;;;6.40;100.00
43436;BME280;36399;51.444;-2.018;2023-03-23T06:24:08;98906.63;;;6.45;100.00
43436;BME280;36399;51.444;-2.018;2023-03-23T06:26:38;98907.53;;;6.56;100.00
43436;BME280;36399;51.444;-2.018;2023-03-23T06:29:07;98911.88;;;6.58;100.00
43436;BME280;36399;51.444;-2.018;2023-03-23T06:31:46;98903.22;;;6.67;100.00
43436;BME280;36399;51.444;-2.018;2023-03-23T06:34:13;98906.72;;;6.68;100.00
43436;BME280;36399;51.444;-2.018;2023-03-23T06:36:40;98909.31;;;6.71;100.00
43436;BME280;36399;51.444;-2.018;2023-03-23T06:39:06;98919.75;;;6.69;100.00
43436;BME280;36399;51.444;-2.018;2023-03-23T06:41:32;98918.03;;;6.74;100.00
43436;BME280;36399;51.444;-2.018;2023-03-23T06:43:59;98902.44;;;6.80;100.00
43436;BME280;36399;51.444;-2.018;2023-03-23T06:46:27;98918.09;;;6.92;100.00
43436;BME280;36399;51.444;-2.018;2023-03-23T06:48:54;98903.34;;;7.10;100.00
43436;BME280;36399;51.444;-2.018;2023-03-23T06:51:21;98916.41;;;7.10;100.00
43436;BME280;36399;51.444;-2.018;2023-03-23T06:53:47;98904.22;;;7.18;100.00
43436;BME280;36399;51.444;-2.018;2023-03-23T06:56:13;98906.84;;;7.25;100.00
43436;BME280;36399;51.444;-2.018;2023-03-23T06:58:39;98904.28;;;7.33;100.00
43436;BME280;36399;51.444;-2.018;2023-03-23T07:01:07;98890.34;;;7.43;100.00
43436;BME280;36399;51.444;-2.018;2023-03-23T07:03:35;98881.63;;;7.63;100.00
43436;BME280;36399;51.444;-2.018;2023-03-23T07:06:02;98885.09;;;7.71;100.00
43436;BME280;36399;51.444;-2.018;2023-03-23T07:08:29;98878.13;;;7.85;100.00
43436;BME280;36399;51.444;-2.018;2023-03-23T07:10:55;98878.09;;;7.97;100.00
43436;BME280;36399;51.444;-2.018;2023-03-23T07:13:23;98869.38;;;8.03;100.00
43436;BME280;36399;51.444;-2.018;2023-03-23T07:15:49;98874.59;;;8.10;100.00
43436;BME280;36399;51.444;-2.018;2023-03-23T07:18:16;98864.09;;;8.18;100.00
43436;BME280;36399;51.444;-2.018;2023-03-23T07:20:42;98855.34;;;8.27;100.00
43436;BME280;36399;51.444;-2.018;2023-03-23T07:23:08;98853.66;;;8.33;100.00
43436;BME280;36399;51.444;-2.018;2023-03-23T07:25:35;98834.47;;;8.36;100.00
43436;BME280;36399;51.444;-2.018;2023-03-23T07:28:02;98841.38;;;8.46;100.00
43436;BME280;36399;51.444;-2.018;2023-03-23T07:30:29;98845.75;;;8.45;100.00
43436;BME280;36399;51.444;-2.018;2023-03-23T07:32:56;98840.50;;;8.48;100.00
43436;BME280;36399;51.444;-2.018;2023-03-23T07:35:23;98834.38;;;8.54;100.00
43436;BME280;36399;51.444;-2.018;2023-03-23T07:37:50;98839.59;;;8.54;100.00
43436;BME280;36399;51.444;-2.018;2023-03-23T07:40:18;98835.22;;;8.61;100.00
43436;BME280;36399;51.444;-2.018;2023-03-23T07:42:46;98841.25;;;8.70;100.00
43436;BME280;36399;51.444;-2.018;2023-03-23T07:45:16;98831.66;;;8.72;100.00
43436;BME280;36399;51.444;-2.018;2023-03-23T07:47:43;98781.91;;;8.78;100.00
43436;BME280;36399;51.444;-2.018;2023-03-23T07:50:11;98825.47;;;8.85;100.00
43436;BME280;36399;51.444;-2.018;2023-03-23T07:52:38;98815.84;;;8.92;100.00
43436;BME280;36399;51.444;-2.018;2023-03-23T07:55:06;98835.00;;;8.99;100.00
43436;BME280;36399;51.444;-2.018;2023-03-23T07:57:34;98825.38;;;8.99;100.00
43436;BME280;36399;51.444;-2.018;2023-03-23T08:00:00;98830.56;;;9.07;100.00
43436;BME280;36399;51.444;-2.018;2023-03-23T08:02:26;98832.28;;;9.11;100.00
43436;BME280;36399;51.444;-2.018;2023-03-23T08:04:52;98836.59;;;9.15;100.00
43436;BME280;36399;51.444;-2.018;2023-03-23T08:07:19;98849.66;;;9.21;100.00
43436;BME280;36399;51.444;-2.018;2023-03-23T08:09:46;98847.84;;;9.29;100.00
43436;BME280;36399;51.444;-2.018;2023-03-23T08:12:13;98846.06;;;9.31;100.00
43436;BME280;36399;51.444;-2.018;2023-03-23T08:14:39;98839.88;;;9.46;100.00
43436;BME280;36399;51.444;-2.018;2023-03-23T08:17:07;98847.44;;;9.75;100.00
43436;BME280;36399;51.444;-2.018;2023-03-23T08:19:35;98838.69;;;9.76;100.00
43436;BME280;36399;51.444;-2.018;2023-03-23T08:22:03;98835.38;;;9.59;100.00
43436;BME280;36399;51.444;-2.018;2023-03-23T08:24:30;98847.66;;;9.54;100.00
43436;BME280;36399;51.444;-2.018;2023-03-23T08:26:56;98843.34;;;9.46;100.00
43436;BME280;36399;51.444;-2.018;2023-03-23T08:29:22;98831.09;;;9.50;100.00
43436;BME280;36399;51.444;-2.018;2023-03-23T08:31:48;98835.41;;;9.56;100.00
43436;BME280;36399;51.444;-2.018;2023-03-23T08:34:15;98852.78;;;9.66;100.00
43436;BME280;36399;51.444;-2.018;2023-03-23T08:36:41;98842.94;;;9.88;100.00
43436;BME280;36399;51.444;-2.018;2023-03-23T08:39:10;98843.72;;;10.00;100.00
43436;BME280;36399;51.444;-2.018;2023-03-23T08:41:36;98827.63;;;10.31;100.00
43436;BME280;36399;51.444;-2.018;2023-03-23T08:44:03;98811.78;;;10.40;100.00
43436;BME280;36399;51.444;-2.018;2023-03-23T08:46:30;98824.03;;;10.41;100.00
43436;BME280;36399;51.444;-2.018;2023-03-23T08:48:56;98837.97;;;10.46;100.00
43436;BME280;36399;51.444;-2.018;2023-03-23T08:51:22;98828.25;;;10.54;100.00
43436;BME280;36399;51.444;-2.018;2023-03-23T08:53:48;98814.81;;;10.75;100.00
43436;BME280;36399;51.444;-2.018;2023-03-23T08:56:14;98814.28;;;10.52;100.00
43436;BME280;36399;51.444;-2.018;2023-03-23T08:58:40;98816.06;;;10.49;100.00
43436;BME280;36399;51.444;-2.018;2023-03-23T09:01:07;98828.88;;;10.70;100.00
43436;BME280;36399;51.444;-2.018;2023-03-23T09:03:33;98793.56;;;10.94;100.00
43436;BME280;36399;51.444;-2.018;2023-03-23T09:06:02;98809.03;;;11.12;100.00
43436;BME280;36399;51.444;-2.018;2023-03-23T09:08:29;98798.66;;;11.03;100.00
43436;BME280;36399;51.444;-2.018;2023-03-23T09:11:01;98807.50;;;10.99;100.00
43436;BME280;36399;51.444;-2.018;2023-03-23T09:13:28;98796.97;;;10.99;100.00
43436;BME280;36399;51.444;-2.018;2023-03-23T09:15:55;98775.56;;;11.23;100.00
43436;BME280;36399;51.444;-2.018;2023-03-23T09:18:21;98796.63;;;11.20;100.00
43436;BME280;36399;51.444;-2.018;2023-03-23T09:20:49;98780.69;;;11.31;100.00
43436;BME280;36399;51.444;-2.018;2023-03-23T09:23:16;98771.19;;;11.24;100.00
43436;BME280;36399;51.444;-2.018;2023-03-23T09:25:42;98787.53;;;11.39;100.00
43436;BME280;36399;51.444;-2.018;2023-03-23T09:28:08;98804.41;;;11.26;100.00
43436;BME280;36399;51.444;-2.018;2023-03-23T09:30:38;98785.03;;;11.33;100.00
43436;BME280;36399;51.444;-2.018;2023-03-23T09:33:04;98787.56;;;11.38;100.00
43436;BME280;36399;51.444;-2.018;2023-03-23T09:35:32;98794.22;;;11.59;100.00
43436;BME280;36399;51.444;-2.018;2023-03-23T09:38:00;98788.28;;;11.98;100.00
43436;BME280;36399;51.444;-2.018;2023-03-23T09:46:06;98785.66;;;11.97;100.00
43436;BME280;36399;51.444;-2.018;2023-03-23T09:48:53;98784.69;;;12.03;100.00
43436;BME280;36399;51.444;-2.018;2023-03-23T09:51:47;98766.25;;;12.44;100.00
43436;BME280;36399;51.444;-2.018;2023-03-23T09:54:21;98745.41;;;11.93;100.00
43436;BME280;36399;51.444;-2.018;2023-03-23T09:56:49;98780.94;;;12.14;100.00
43436;BME280;36399;51.444;-2.018;2023-03-23T09:59:24;98780.97;;;12.54;100.00
43436;BME280;36399;51.444;-2.018;2023-03-23T10:02:04;98773.88;;;12.95;100.00
43436;BME280;36399;51.444;-2.018;2023-03-23T10:04:41;98776.50;;;13.34;100.00
43436;BME280;36399;51.444;-2.018;2023-03-23T10:09:45;98779.50;;;13.54;100.00
43436;BME280;36399;51.444;-2.018;2023-03-23T10:13:04;98780.66;;;12.68;100.00
43436;BME280;36399;51.444;-2.018;2023-03-23T10:15:30;98776.81;;;12.83;100.00
43436;BME280;36399;51.444;-2.018;2023-03-23T10:17:59;98775.41;;;12.68;100.00
43436;BME280;36399;51.444;-2.018;2023-03-23T10:20:37;98802.38;;;13.18;100.00
43436;BME280;36399;51.444;-2.018;2023-03-23T10:25:52;98768.59;;;13.68;100.00
43436;BME280;36399;51.444;-2.018;2023-03-23T10:28:32;98786.72;;;13.80;100.00
43436;BME280;36399;51.444;-2.018;2023-03-23T10:31:01;98775.72;;;13.95;100.00
43436;BME280;36399;51.444;-2.018;2023-03-23T10:39:00;98777.94;;;14.12;100.00
43436;BME280;36399;51.444;-2.018;2023-03-23T10:41:27;98772.81;;;14.06;100.00
43436;BME280;36399;51.444;-2.018;2023-03-23T10:43:53;98782.50;;;14.05;100.00
43436;BME280;36399;51.444;-2.018;2023-03-23T10:49:19;98753.28;;;14.42;100.00
43436;BME280;36399;51.444;-2.018;2023-03-23T10:51:54;98786.75;;;14.11;100.00
43436;BME280;36399;51.444;-2.018;2023-03-23T10:54:35;98794.88;;;14.34;100.00
43436;BME280;36399;51.444;-2.018;2023-03-23T10:57:21;98796.31;;;13.48;100.00
43436;BME280;36399;51.444;-2.018;2023-03-23T10:59:48;98806.06;;;13.45;100.00
43436;BME280;36399;51.444;-2.018;2023-03-23T11:02:16;98808.28;;;13.27;100.00
43436;BME280;36399;51.444;-2.018;2023-03-23T11:04:56;98799.31;;;12.96;100.00
43436;BME280;36399;51.444;-2.018;2023-03-23T11:07:28;98817.34;;;13.14;100.00
43436;BME280;36399;51.444;-2.018;2023-03-23T11:09:57;98820.56;;;13.27;100.00
43436;BME280;36399;51.444;-2.018;2023-03-23T11:12:24;98824.53;;;13.08;100.00
43436;BME280;36399;51.444;-2.018;2023-03-23T11:14:52;98819.56;;;12.94;100.00
43436;BME280;36399;51.444;-2.018;2023-03-23T11:17:26;98814.72;;;13.14;100.00
43436;BME280;36399;51.444;-2.018;2023-03-23T11:19:53;98808.94;;;12.60;100.00
43436;BME280;36399;51.444;-2.018;2023-03-23T11:22:31;98816.06;;;12.55;100.00
43436;BME280;36399;51.444;-2.018;2023-03-23T11:25:04;98834.88;;;12.35;100.00
43436;BME280;36399;51.444;-2.018;2023-03-23T11:27:33;98839.16;;;11.94;100.00
43436;BME280;36399;51.444;-2.018;2023-03-23T11:30:11;98852.00;;;11.62;100.00
43436;BME280;36399;51.444;-2.018;2023-03-23T11:32:46;98831.03;;;11.59;100.00
43436;BME280;36399;51.444;-2.018;2023-03-23T11:35:19;98829.38;;;12.04;100.00
43436;BME280;36399;51.444;-2.018;2023-03-23T11:37:52;98806.53;;;12.06;100.00
43436;BME280;36399;51.444;-2.018;2023-03-23T11:40:24;98815.59;;;12.35;100.00
43436;BME280;36399;51.444;-2.018;2023-03-23T11:43:09;98787.31;;;12.84;100.00
43436;BME280;36399;51.444;-2.018;2023-03-23T11:45:40;98783.25;;;13.44;100.00
43436;BME280;36399;51.444;-2.018;2023-03-23T11:51:17;98760.31;;;14.73;100.00
43436;BME280;36399;51.444;-2.018;2023-03-23T11:53:53;98756.25;;;14.89;100.00
43436;BME280;36399;51.444;-2.018;2023-03-23T11:58:47;98750.28;;;14.55;100.00
43436;BME280;36399;51.444;-2.018;2023-03-23T12:04:33;98775.47;;;13.73;100.00
43436;BME280;36399;51.444;-2.018;2023-03-23T12:09:52;98778.00;;;12.70;100.00
43436;BME280;36399;51.444;-2.018;2023-03-23T12:12:51;98775.03;;;12.83;100.00
43436;BME280;36399;51.444;-2.018;2023-03-23T12:15:27;98791.34;;;12.99;100.00
43436;BME280;36399;51.444;-2.018;2023-03-23T12:18:06;98781.06;;;12.88;100.00
43436;BME280;36399;51.444;-2.018;2023-03-23T12:26:05;98755.41;;;12.96;100.00
43436;BME280;36399;51.444;-2.018;2023-03-23T12:45:37;98761.25;;;13.09;100.00
43436;BME280;36399;51.444;-2.018;2023-03-23T12:48:13;98759.19;;;13.23;100.00
43436;BME280;36399;51.444;-2.018;2023-03-23T12:50:58;98750.56;;;13.15;100.00
43436;BME280;36399;51.444;-2.018;2023-03-23T12:53:34;98747.56;;;13.31;100.00
43436;BME280;36399;51.444;-2.018;2023-03-23T12:56:17;98758.25;;;13.26;100.00
43436;BME280;36399;51.444;-2.018;2023-03-23T12:58:48;98740.91;;;13.16;100.00
43436;BME280;36399;51.444;-2.018;2023-03-23T13:01:23;98751.03;;;12.95;100.00
43436;BME280;36399;51.444;-2.018;2023-03-23T13:03:57;98759.34;;;13.17;100.00
43436;BME280;36399;51.444;-2.018;2023-03-23T13:06:42;98730.59;;;13.07;100.00
43436;BME280;36399;51.444;-2.018;2023-03-23T13:09:27;98720.72;;;12.79;100.00
43436;BME280;36399;51.444;-2.018;2023-03-23T13:11:56;98734.47;;;13.27;100.00
43436;BME280;36399;51.444;-2.018;2023-03-23T13:28:27;98702.91;;;13.26;100.00
43436;BME280;36399;51.444;-2.018;2023-03-23T13:30:56;98704.09;;;13.47;100.00
43436;BME280;36399;51.444;-2.018;2023-03-23T13:33:22;98709.28;;;13.50;100.00
43436;BME280;36399;51.444;-2.018;2023-03-23T13:35:49;98692.31;;;13.27;100.00
43436;BME280;36399;51.444;-2.018;2023-03-23T13:38:27;98722.09;;;12.94;100.00
43436;BME280;36399;51.444;-2.018;2023-03-23T13:40:56;98720.59;;;12.84;100.00
43436;BME280;36399;51.444;-2.018;2023-03-23T13:43:29;98680.88;;;12.57;100.00
43436;BME280;36399;51.444;-2.018;2023-03-23T13:46:22;98708.06;;;12.58;100.00
43436;BME280;36399;51.444;-2.018;2023-03-23T13:49:04;98703.22;;;12.38;100.00
43436;BME280;36399;51.444;-2.018;2023-03-23T13:51:36;98720.22;;;12.23;100.00
43436;BME280;36399;51.444;-2.018;2023-03-23T13:59:35;98710.66;;;11.78;100.00
43436;BME280;36399;51.444;-2.018;2023-03-23T14:04:56;98716.75;;;11.32;100.00
43436;BME280;36399;51.444;-2.018;2023-03-23T14:07:22;98708.06;;;11.28;100.00
43436;BME280;36399;51.444;-2.018;2023-03-23T14:09:51;98727.50;;;11.18;100.00
43436;BME280;36399;51.444;-2.018;2023-03-23T14:12:20;98724.16;;;11.09;100.00
43436;BME280;36399;51.444;-2.018;2023-03-23T14:14:49;98718.31;;;10.93;100.00
43436;BME280;36399;51.444;-2.018;2023-03-23T14:17:24;98727.22;;;10.83;100.00
43436;BME280;36399;51.444;-2.018;2023-03-23T14:19:52;98726.38;;;10.79;100.00
43436;BME280;36399;51.444;-2.018;2023-03-23T14:22:28;98727.22;;;10.83;100.00
43436;BME280;36399;51.444;-2.018;2023-03-23T14:25:12;98724.53;;;10.86;100.00